Time;durP1;ratioP1;P1;durP2;ratioP2;P2;SDS_P1;SDS_P2;PMS_P1;PMS_P2;Temp;Humidity;BMP_temperature;BMP_pressure;BME280_temperature;BME280_humidity;BME280_pressure;Samples;Min_cycle;Max_cycle;Signal;HPM_P1;HPM_P2
2023/08/14 00:01:20;;;;;;;7.85;4.72;;;16.40;99.90;;;;;;4887473;29;20239;-65
2023/08/14 00:03:46;;;;;;;8.90;5.18;;;16.40;99.90;;;;;;4888082;29;20216;-64
2023/08/14 00:06:12;;;;;;;8.68;5.15;;;16.40;99.90;;;;;;4886956;29;20222;-64
2023/08/14 00:08:38;;;;;;;9.50;4.70;;;16.40;99.90;;;;;;4885926;29;20196;-64
2023/08/14 00:11:04;;;;;;;8.68;4.70;;;16.40;99.90;;;;;;4895853;29;20279;-64
2023/08/14 00:13:30;;;;;;;7.78;4.68;;;16.30;99.90;;;;;;4880831;29;20654;-65
2023/08/14 00:15:55;;;;;;;8.57;4.72;;;16.30;99.90;;;;;;4888059;29;20196;-64
2023/08/14 00:18:21;;;;;;;8.32;5.20;;;16.30;99.90;;;;;;4892763;29;20188;-65
2023/08/14 00:20:47;;;;;;;8.98;5.05;;;16.30;99.90;;;;;;4895467;29;20638;-64
2023/08/14 00:23:13;;;;;;;11.05;5.00;;;16.30;99.90;;;;;;4895407;29;20236;-64
2023/08/14 00:25:39;;;;;;;12.82;5.10;;;16.20;99.90;;;;;;4895180;29;20645;-64
2023/08/14 00:28:05;;;;;;;12.02;5.20;;;16.20;99.90;;;;;;4894899;29;20252;-64
2023/08/14 00:30:31;;;;;;;8.23;5.00;;;16.20;99.90;;;;;;4878133;29;20193;-65
2023/08/14 00:32:57;;;;;;;8.63;5.13;;;16.20;99.90;;;;;;4891846;29;20707;-65
2023/08/14 00:35:23;;;;;;;11.20;5.13;;;16.20;99.90;;;;;;4891979;29;20248;-64
2023/08/14 00:37:49;;;;;;;10.82;5.40;;;16.20;99.90;;;;;;4896246;29;20601;-64
2023/08/14 00:40:16;;;;;;;9.00;5.45;;;16.20;99.90;;;;;;4895287;29;20196;-64
2023/08/14 00:42:47;;;;;;;7.25;5.32;;;16.10;99.90;;;;;;4896976;29;20692;-64
2023/08/14 00:45:13;;;;;;;8.00;5.82;;;16.10;99.90;;;;;;4885617;29;20558;-64
2023/08/14 00:47:40;;;;;;;8.43;5.18;;;16.10;99.90;;;;;;4898303;29;20193;-64
2023/08/14 00:50:08;;;;;;;8.55;5.15;;;16.10;99.90;;;;;;4899147;29;20624;-64
2023/08/14 00:52:37;;;;;;;9.27;5.43;;;16.10;99.90;;;;;;4899952;29;20245;-65
2023/08/14 00:55:08;;;;;;;9.35;5.70;;;16.10;99.90;;;;;;4882689;29;20277;-65
2023/08/14 00:57:35;;;;;;;9.68;5.88;;;16.00;99.90;;;;;;4914494;29;20203;-65
2023/08/14 01:00:05;;;;;;;10.60;5.55;;;16.00;99.90;;;;;;4895237;29;20268;-65
2023/08/14 01:02:33;;;;;;;10.10;5.65;;;16.00;99.90;;;;;;4886844;29;20267;-64
2023/08/14 01:04:59;;;;;;;8.23;5.22;;;16.00;99.90;;;;;;4896870;29;20215;-64
2023/08/14 01:07:25;;;;;;;11.98;5.80;;;16.00;99.90;;;;;;4898394;29;20219;-64
2023/08/14 01:09:52;;;;;;;9.65;5.47;;;16.00;99.90;;;;;;4913712;29;20199;-64
2023/08/14 01:12:42;;;;;;;6.05;4.65;;;16.00;99.90;;;;;;4897015;29;20199;-64
2023/08/14 01:15:25;;;;;;;8.07;4.78;;;16.00;99.90;;;;;;4893924;29;20200;-63
2023/08/14 01:17:55;;;;;;;9.00;5.10;;;16.00;99.90;;;;;;4895617;29;20199;-64
2023/08/14 01:20:25;;;;;;;10.10;5.18;;;16.00;99.90;;;;;;4898940;29;20200;-64
2023/08/14 01:23:17;;;;;;;14.60;5.38;;;16.00;99.90;;;;;;4897543;29;20890;-65
2023/08/14 01:25:44;;;;;;;7.45;4.70;;;16.00;99.90;;;;;;4880597;29;20223;-64
2023/08/14 01:28:10;;;;;;;9.13;5.25;;;15.90;99.90;;;;;;4896443;29;20188;-65
2023/08/14 01:30:36;;;;;;;12.63;5.47;;;16.00;99.90;;;;;;4890026;29;20189;-65
2023/08/14 01:33:02;;;;;;;13.90;5.07;;;15.90;99.90;;;;;;4897030;29;20216;-64
2023/08/14 01:35:38;;;;;;;9.38;5.03;;;16.00;99.90;;;;;;4890336;29;20201;-64
2023/08/14 01:38:31;;;;;;;9.05;4.88;;;15.90;99.90;;;;;;4897466;29;20189;-64
2023/08/14 01:41:19;;;;;;;6.80;4.90;;;15.90;99.90;;;;;;4895563;29;20197;-64
2023/08/14 01:43:49;;;;;;;9.80;4.40;;;15.90;99.90;;;;;;4894755;29;20185;-63
2023/08/14 01:46:17;;;;;;;10.85;4.50;;;16.00;99.90;;;;;;4898674;29;20180;-64
2023/08/14 01:48:45;;;;;;;7.95;4.60;;;15.90;99.90;;;;;;4906331;29;20188;-64
2023/08/14 01:51:13;;;;;;;8.75;4.93;;;16.00;99.90;;;;;;4896114;29;20638;-64
2023/08/14 01:53:40;;;;;;;8.45;4.60;;;15.90;99.90;;;;;;4895755;29;20216;-64
2023/08/14 01:56:06;;;;;;;11.27;5.03;;;16.00;99.90;;;;;;4895476;29;20540;-64
2023/08/14 01:58:32;;;;;;;9.23;5.00;;;15.90;99.90;;;;;;4895598;29;20200;-64
2023/08/14 02:00:58;;;;;;;8.85;5.00;;;15.90;99.90;;;;;;4882268;29;20197;-64
2023/08/14 02:03:25;;;;;;;6.88;4.60;;;15.90;99.90;;;;;;4880722;29;20194;-64
2023/08/14 02:05:51;;;;;;;6.55;4.78;;;15.90;99.90;;;;;;4896294;29;20185;-65
2023/08/14 02:08:17;;;;;;;7.40;4.85;;;15.90;99.90;;;;;;4898431;29;20197;-65
2023/08/14 02:10:43;;;;;;;11.05;5.20;;;15.90;99.90;;;;;;4881979;29;20211;-64
2023/08/14 02:13:09;;;;;;;9.35;5.20;;;15.90;99.90;;;;;;4881739;29;20595;-64
2023/08/14 02:15:35;;;;;;;8.75;5.43;;;15.90;99.90;;;;;;4892518;29;20284;-65
2023/08/14 02:18:02;;;;;;;9.98;5.55;;;15.90;99.90;;;;;;4894173;29;20197;-65
2023/08/14 02:20:29;;;;;;;8.80;5.40;;;15.90;99.90;;;;;;4888545;29;20631;-65
2023/08/14 02:22:54;;;;;;;14.63;5.57;;;15.90;99.90;;;;;;4904082;29;20311;-65
2023/08/14 02:25:20;;;;;;;10.50;5.63;;;15.90;99.90;;;;;;4893936;29;20207;-65
2023/08/14 02:27:46;;;;;;;10.25;5.75;;;15.90;99.90;;;;;;4898247;29;20228;-65
2023/08/14 02:30:12;;;;;;;12.45;6.03;;;15.90;99.90;;;;;;4890467;29;20252;-65
2023/08/14 02:32:38;;;;;;;8.93;6.10;;;15.90;99.90;;;;;;4881131;29;20199;-65
2023/08/14 02:35:05;;;;;;;10.23;6.10;;;15.90;99.90;;;;;;4891837;29;20201;-65
2023/08/14 02:37:32;;;;;;;11.07;6.13;;;15.90;99.90;;;;;;4894809;29;20305;-65
2023/08/14 02:39:58;;;;;;;9.20;6.03;;;15.90;99.90;;;;;;4891600;29;20661;-65
2023/08/14 02:42:24;;;;;;;11.23;6.70;;;15.90;99.90;;;;;;4895187;29;20193;-65
2023/08/14 02:44:50;;;;;;;12.50;7.40;;;15.90;99.90;;;;;;4896332;29;20244;-64
2023/08/14 02:47:17;;;;;;;12.32;6.85;;;15.90;99.90;;;;;;4896376;29;20192;-65
2023/08/14 02:49:43;;;;;;;11.55;7.68;;;15.90;99.90;;;;;;4895331;29;20196;-64
2023/08/14 02:52:10;;;;;;;13.18;7.95;;;15.90;99.90;;;;;;4895912;29;20184;-65
2023/08/14 02:54:36;;;;;;;13.23;7.85;;;15.90;99.90;;;;;;4894271;29;20220;-65
2023/08/14 02:57:02;;;;;;;16.67;8.32;;;15.90;99.90;;;;;;4894813;29;20284;-65
2023/08/14 02:59:28;;;;;;;13.25;8.90;;;15.90;99.90;;;;;;4877162;29;20709;-65
2023/08/14 03:01:54;;;;;;;16.27;9.27;;;15.90;99.90;;;;;;4893121;29;20189;-64
2023/08/14 03:04:20;;;;;;;12.98;9.48;;;15.90;99.90;;;;;;4893102;29;20642;-64
2023/08/14 03:06:46;;;;;;;14.57;9.95;;;15.90;99.90;;;;;;4876481;29;20189;-64
2023/08/14 03:09:12;;;;;;;16.08;10.70;;;15.90;99.90;;;;;;4890640;29;20185;-64
2023/08/14 03:11:38;;;;;;;16.08;11.88;;;15.90;99.90;;;;;;4892598;29;20320;-64
2023/08/14 03:14:04;;;;;;;19.25;11.57;;;15.90;99.90;;;;;;4891571;29;20221;-64
2023/08/14 03:16:30;;;;;;;15.48;11.68;;;15.90;99.90;;;;;;4892603;29;20184;-64
2023/08/14 03:18:56;;;;;;;18.08;11.50;;;15.90;99.90;;;;;;4895177;29;20192;-64
2023/08/14 03:21:22;;;;;;;18.90;12.13;;;15.90;99.90;;;;;;4888218;29;20201;-64
2023/08/14 03:23:49;;;;;;;16.08;11.48;;;15.90;99.90;;;;;;4876608;29;20595;-64
2023/08/14 03:26:15;;;;;;;17.48;11.70;;;15.90;99.90;;;;;;4891912;29;20200;-64
2023/08/14 03:28:41;;;;;;;14.63;11.25;;;15.90;99.90;;;;;;4896492;29;20198;-64
2023/08/14 03:31:08;;;;;;;15.25;10.85;;;15.90;99.90;;;;;;4892901;29;20244;-65
2023/08/14 03:33:34;;;;;;;16.42;11.07;;;15.80;99.90;;;;;;4885417;29;20306;-64
2023/08/14 03:36:00;;;;;;;16.33;10.32;;;15.90;99.90;;;;;;4910965;29;20701;-64
2023/08/14 03:38:26;;;;;;;15.02;11.35;;;15.80;99.90;;;;;;4884584;29;20239;-64
2023/08/14 03:40:52;;;;;;;14.88;11.27;;;15.80;99.90;;;;;;4909250;29;20196;-65
2023/08/14 03:43:18;;;;;;;15.55;11.40;;;15.80;99.90;;;;;;4897087;29;20218;-64
2023/08/14 03:45:45;;;;;;;17.48;11.70;;;15.80;99.90;;;;;;4879839;29;20207;-64
2023/08/14 03:48:12;;;;;;;18.80;11.65;;;15.80;99.90;;;;;;4880365;29;20185;-65
2023/08/14 03:50:40;;;;;;;20.95;12.45;;;15.80;99.90;;;;;;4893946;29;20662;-65
2023/08/14 03:53:06;;;;;;;18.25;11.52;;;15.80;99.90;;;;;;4885815;29;20292;-65
2023/08/14 03:55:32;;;;;;;17.02;11.88;;;15.80;99.90;;;;;;4879120;29;20671;-65
2023/08/14 03:57:58;;;;;;;16.98;11.68;;;15.90;99.90;;;;;;4895705;29;21027;-65
2023/08/14 04:00:23;;;;;;;16.83;12.18;;;15.80;99.90;;;;;;4893998;29;20192;-65
2023/08/14 04:02:49;;;;;;;19.30;12.38;;;15.80;99.90;;;;;;4886576;29;20252;-65
2023/08/14 04:05:15;;;;;;;19.98;12.50;;;15.80;99.90;;;;;;4893638;29;20669;-65
2023/08/14 04:07:41;;;;;;;18.20;12.18;;;15.80;99.90;;;;;;4889546;29;20184;-65
2023/08/14 04:10:08;;;;;;;17.23;13.07;;;15.90;99.90;;;;;;4880026;29;20212;-64
2023/08/14 04:12:34;;;;;;;18.75;13.13;;;15.90;99.90;;;;;;4892053;29;20271;-64
2023/08/14 04:15:15;;;;;;;20.60;13.20;;;15.90;99.90;;;;;;4879612;29;20301;-64
2023/08/14 04:17:41;;;;;;;22.17;12.55;;;15.90;99.90;;;;;;4891803;29;20183;-64
2023/08/14 04:20:09;;;;;;;21.30;13.60;;;15.90;99.90;;;;;;4891135;29;20201;-64
2023/08/14 04:22:36;;;;;;;17.00;12.23;;;15.90;99.90;;;;;;4895707;29;20720;-64
2023/08/14 04:25:02;;;;;;;20.58;12.77;;;15.90;99.90;;;;;;4898676;29;20204;-65
2023/08/14 04:27:28;;;;;;;18.13;12.18;;;15.90;99.90;;;;;;4893618;29;20570;-65
2023/08/14 04:29:54;;;;;;;18.63;12.10;;;15.90;99.90;;;;;;4900300;29;20199;-64
2023/08/14 04:32:20;;;;;;;16.02;11.88;;;16.00;99.90;;;;;;4898222;29;20206;-63
2023/08/14 04:34:46;;;;;;;17.58;11.88;;;16.00;99.90;;;;;;4913915;29;20219;-64
2023/08/14 04:37:12;;;;;;;17.08;11.05;;;16.00;99.90;;;;;;4897184;29;20225;-63
2023/08/14 04:39:38;;;;;;;18.80;11.52;;;16.00;99.90;;;;;;4896140;29;20565;-64
2023/08/14 04:42:04;;;;;;;19.27;11.38;;;16.10;99.90;;;;;;4909031;29;20204;-67
2023/08/14 04:44:30;;;;;;;16.15;11.50;;;16.10;99.90;;;;;;4895955;29;20189;-66
2023/08/14 04:46:56;;;;;;;13.35;10.82;;;16.10;99.90;;;;;;4900020;29;20353;-64
2023/08/14 04:49:22;;;;;;;19.42;11.27;;;16.10;99.90;;;;;;4898322;29;20189;-61
2023/08/14 04:51:48;;;;;;;19.23;12.32;;;16.10;99.90;;;;;;4902166;29;20279;-61
2023/08/14 04:54:14;;;;;;;24.45;11.50;;;16.10;99.90;;;;;;4881333;29;20217;-62
2023/08/14 04:56:40;;;;;;;16.67;12.07;;;16.20;99.90;;;;;;4909406;29;20794;-65
2023/08/14 04:59:06;;;;;;;17.73;11.63;;;16.20;99.90;;;;;;4899842;29;20189;-63
2023/08/14 05:01:32;;;;;;;16.30;10.82;;;16.30;99.90;;;;;;4879297;29;20188;-64
2023/08/14 05:03:58;;;;;;;16.55;11.10;;;16.30;99.90;;;;;;4889002;29;20196;-64
2023/08/14 05:06:26;;;;;;;17.52;11.00;;;16.40;99.90;;;;;;4908239;29;20254;-62
2023/08/14 05:08:53;;;;;;;20.10;11.00;;;16.50;99.90;;;;;;4902679;29;20194;-63
2023/08/14 05:11:19;;;;;;;17.67;10.68;;;16.50;99.90;;;;;;4902064;29;20208;-62
2023/08/14 05:13:46;;;;;;;15.88;10.50;;;16.60;99.90;;;;;;4898457;29;20232;-62
2023/08/14 05:16:12;;;;;;;16.42;9.98;;;16.60;99.90;;;;;;4902142;29;20275;-62
2023/08/14 05:18:38;;;;;;;17.80;9.68;;;16.70;99.90;;;;;;4889757;29;20188;-63
2023/08/14 05:21:05;;;;;;;16.42;9.50;;;16.70;99.90;;;;;;4888247;29;20224;-64
2023/08/14 05:23:31;;;;;;;19.13;12.13;;;16.80;99.90;;;;;;4911991;29;20228;-66
2023/08/14 05:25:57;;;;;;;14.18;9.45;;;16.80;99.90;;;;;;4892294;29;20265;-67
2023/08/14 05:28:23;;;;;;;15.07;9.63;;;16.90;99.90;;;;;;4892485;29;20215;-65
2023/08/14 05:30:49;;;;;;;15.55;9.20;;;16.90;99.90;;;;;;4890854;29;20265;-65
2023/08/14 05:33:15;;;;;;;13.35;9.07;;;17.00;99.90;;;;;;4896015;29;20918;-63
2023/08/14 05:35:41;;;;;;;13.32;8.75;;;17.00;99.90;;;;;;4887348;29;20701;-64
2023/08/14 05:38:07;;;;;;;16.17;8.82;;;17.10;99.90;;;;;;4888197;29;20197;-66
2023/08/14 05:40:33;;;;;;;17.38;8.82;;;17.20;99.90;;;;;;4884723;29;20200;-63
2023/08/14 05:43:09;;;;;;;18.20;8.43;;;17.20;99.90;;;;;;4892285;29;20687;-61
2023/08/14 05:45:41;;;;;;;14.02;8.45;;;17.30;99.90;;;;;;4898531;29;20192;-63
2023/08/14 05:48:07;;;;;;;14.80;8.35;;;17.40;99.90;;;;;;4897029;29;20219;-61
2023/08/14 05:50:34;;;;;;;15.77;8.65;;;17.50;99.90;;;;;;4898801;29;20220;-62
2023/08/14 05:53:05;;;;;;;13.32;8.07;;;17.60;99.90;;;;;;4886984;29;20229;-65
2023/08/14 05:55:36;;;;;;;13.00;8.20;;;17.70;99.90;;;;;;4896726;29;20208;-63
2023/08/14 05:58:02;;;;;;;12.90;7.60;;;17.80;99.90;;;;;;4896156;29;20218;-61
2023/08/14 06:00:29;;;;;;;12.40;7.93;;;17.80;99.90;;;;;;4896856;29;20248;-62
2023/08/14 06:02:55;;;;;;;16.48;7.72;;;17.90;99.90;;;;;;4892798;29;20260;-66
2023/08/14 06:05:22;;;;;;;14.68;7.20;;;18.00;99.90;;;;;;4884880;29;20185;-64
2023/08/14 06:07:49;;;;;;;16.52;7.65;;;18.00;99.90;;;;;;4891051;29;20192;-64
2023/08/14 06:10:15;;;;;;;11.18;7.50;;;18.10;99.90;;;;;;4897642;29;20231;-63
2023/08/14 06:12:41;;;;;;;16.60;7.20;;;18.20;99.90;;;;;;4893830;29;20200;-64
2023/08/14 06:15:08;;;;;;;12.63;7.45;;;18.20;99.90;;;;;;4894175;29;20578;-64
2023/08/14 06:17:34;;;;;;;16.58;7.57;;;18.30;99.90;;;;;;4897583;29;20204;-64
2023/08/14 06:20:01;;;;;;;13.35;7.65;;;18.30;99.90;;;;;;4897957;29;20193;-66
2023/08/14 06:22:27;;;;;;;11.70;7.63;;;18.40;99.90;;;;;;4877754;29;20188;-64
2023/08/14 06:24:54;;;;;;;12.68;7.18;;;18.50;99.90;;;;;;4894199;29;20199;-64
2023/08/14 06:27:20;;;;;;;10.95;7.20;;;18.50;99.90;;;;;;4891882;29;20193;-64
2023/08/14 06:29:46;;;;;;;13.05;7.05;;;18.60;99.90;;;;;;4894373;29;20205;-64
2023/08/14 06:32:12;;;;;;;12.35;6.72;;;18.70;99.90;;;;;;4877113;29;20197;-64
2023/08/14 06:34:38;;;;;;;18.27;7.45;;;18.70;99.90;;;;;;4882954;29;20231;-64
2023/08/14 06:37:04;;;;;;;11.40;6.55;;;18.80;99.90;;;;;;4888821;29;20212;-65
2023/08/14 06:39:30;;;;;;;12.88;7.28;;;18.90;99.90;;;;;;4892036;29;20283;-64
2023/08/14 06:41:56;;;;;;;11.90;7.10;;;19.00;99.90;;;;;;4892457;29;20194;-65
2023/08/14 06:44:22;;;;;;;12.80;7.10;;;19.00;99.90;;;;;;4895828;29;20260;-65
2023/08/14 06:46:48;;;;;;;11.20;6.60;;;19.10;99.90;;;;;;4893207;29;20635;-64
2023/08/14 06:49:14;;;;;;;12.93;6.95;;;19.20;99.90;;;;;;4895004;29;20192;-64
2023/08/14 06:51:40;;;;;;;17.50;6.90;;;19.20;99.90;;;;;;4896131;29;20189;-64
2023/08/14 06:54:06;;;;;;;14.15;7.13;;;19.20;99.90;;;;;;4892525;29;20251;-64
2023/08/14 06:56:32;;;;;;;16.17;7.32;;;19.30;99.90;;;;;;4893645;29;20600;-64
2023/08/14 06:58:58;;;;;;;10.73;6.63;;;19.30;99.90;;;;;;4892866;29;20192;-64
2023/08/14 07:01:24;;;;;;;16.98;8.35;;;19.40;99.90;;;;;;4900811;29;20188;-64
2023/08/14 07:03:51;;;;;;;12.77;6.57;;;19.50;99.90;;;;;;4894721;29;20188;-64
2023/08/14 07:06:17;;;;;;;9.35;6.32;;;19.50;99.90;;;;;;4894629;29;20188;-64
2023/08/14 07:08:42;;;;;;;11.13;7.13;;;19.60;99.90;;;;;;4892880;29;20737;-65
2023/08/14 07:11:08;;;;;;;12.13;7.85;;;19.60;99.90;;;;;;4888949;29;20197;-64
2023/08/14 07:13:34;;;;;;;11.63;6.50;;;19.70;99.90;;;;;;4896901;29;20220;-64
2023/08/14 07:16:00;;;;;;;17.08;8.18;;;19.70;99.90;;;;;;4895879;29;20193;-64
2023/08/14 07:18:26;;;;;;;12.27;6.75;;;19.80;99.90;;;;;;4879190;29;20216;-64
2023/08/14 07:20:52;;;;;;;14.85;6.00;;;19.80;99.90;;;;;;4874796;29;20193;-65
2023/08/14 07:23:19;;;;;;;13.70;6.57;;;19.90;99.90;;;;;;4896881;29;20224;-65
2023/08/14 07:25:46;;;;;;;13.40;6.50;;;20.00;99.90;;;;;;4895567;29;20218;-65
2023/08/14 07:28:13;;;;;;;8.65;5.28;;;20.10;99.90;;;;;;4894681;29;20722;-65
2023/08/14 07:30:39;;;;;;;12.55;5.20;;;20.20;99.90;;;;;;4897146;29;20672;-65
2023/08/14 07:33:07;;;;;;;10.75;5.05;;;20.30;99.90;;;;;;4880225;29;20599;-64
2023/08/14 07:35:34;;;;;;;13.82;6.55;;;20.40;99.90;;;;;;4897166;29;20200;-64
2023/08/14 07:38:00;;;;;;;8.75;5.32;;;20.50;99.90;;;;;;4895136;29;20203;-64
2023/08/14 07:40:26;;;;;;;14.07;5.28;;;20.60;99.90;;;;;;4885882;29;20188;-64
2023/08/14 07:42:52;;;;;;;10.43;5.10;;;20.70;99.90;;;;;;4896529;29;20196;-64
2023/08/14 07:45:18;;;;;;;9.65;4.80;;;20.80;99.90;;;;;;4896516;29;20255;-64
2023/08/14 07:47:44;;;;;;;9.05;4.80;;;20.90;99.90;;;;;;4895115;29;20196;-64
2023/08/14 07:50:10;;;;;;;7.57;4.75;;;21.00;99.90;;;;;;4896467;29;20192;-64
2023/08/14 07:52:36;;;;;;;8.77;4.30;;;21.10;99.90;;;;;;4896092;29;20397;-65
2023/08/14 07:55:03;;;;;;;9.02;4.40;;;21.10;99.90;;;;;;4894586;29;20715;-65
2023/08/14 07:57:29;;;;;;;10.00;4.95;;;21.20;99.90;;;;;;4896199;29;20264;-65
2023/08/14 07:59:56;;;;;;;11.55;4.50;;;21.20;99.90;;;;;;4890635;29;20250;-65
2023/08/14 08:02:22;;;;;;;11.70;5.05;;;21.30;99.90;;;;;;4890511;29;20680;-64
2023/08/14 08:04:48;;;;;;;10.93;4.97;;;21.40;99.90;;;;;;4893095;29;20199;-65
2023/08/14 08:07:14;;;;;;;13.60;5.82;;;21.40;99.90;;;;;;4896528;29;20220;-64
2023/08/14 08:09:40;;;;;;;9.98;5.75;;;21.50;99.90;;;;;;4894350;29;20212;-64
2023/08/14 08:12:07;;;;;;;10.05;5.30;;;21.50;99.90;;;;;;4879720;29;20201;-64
2023/08/14 08:14:34;;;;;;;14.45;5.30;;;21.60;99.90;;;;;;4888983;29;20308;-65
2023/08/14 08:17:00;;;;;;;13.55;5.30;;;21.70;99.90;;;;;;4893246;29;20192;-65
2023/08/14 08:19:26;;;;;;;14.18;6.80;;;21.80;99.90;;;;;;4894978;29;20287;-65
2023/08/14 08:21:53;;;;;;;13.75;5.80;;;21.80;99.90;;;;;;4886137;29;20259;-65
2023/08/14 08:24:20;;;;;;;11.93;5.25;;;21.80;99.90;;;;;;4891900;29;20244;-66
2023/08/14 08:26:46;;;;;;;12.02;4.57;;;21.80;99.90;;;;;;4895454;29;20185;-66
2023/08/14 08:29:12;;;;;;;11.57;5.00;;;21.80;99.90;;;;;;4910643;29;20228;-65
2023/08/14 08:31:38;;;;;;;13.32;5.45;;;21.90;99.90;;;;;;4885471;29;20686;-65
2023/08/14 08:34:04;;;;;;;13.93;5.53;;;22.00;99.90;;;;;;4880358;29;20231;-65
2023/08/14 08:36:30;;;;;;;10.20;4.97;;;22.10;99.90;;;;;;4910278;29;20311;-65
2023/08/14 08:38:56;;;;;;;10.00;4.70;;;22.10;99.90;;;;;;4895036;29;20682;-64
2023/08/14 08:41:30;;;;;;;11.45;4.30;;;22.20;99.90;;;;;;4893497;29;20188;-64
2023/08/14 08:44:09;;;;;;;10.50;4.68;;;22.30;99.90;;;;;;4883590;29;20650;-65
2023/08/14 08:46:37;;;;;;;14.85;4.65;;;22.30;99.90;;;;;;4879390;29;20192;-64
2023/08/14 08:49:04;;;;;;;10.52;3.83;;;22.40;99.90;;;;;;4896172;29;20536;-64
2023/08/14 08:51:34;;;;;;;12.05;4.28;;;22.50;99.90;;;;;;4896149;29;20657;-65
2023/08/14 08:54:01;;;;;;;12.38;3.83;;;22.60;99.90;;;;;;4893710;29;20212;-65
2023/08/14 08:56:27;;;;;;;10.60;3.55;;;22.70;99.90;;;;;;4893229;29;20224;-64
2023/08/14 08:58:53;;;;;;;10.10;3.80;;;22.70;99.90;;;;;;4895738;29;20196;-65
2023/08/14 09:01:20;;;;;;;8.30;3.42;;;22.80;99.90;;;;;;4896331;29;20280;-65
2023/08/14 09:03:47;;;;;;;9.98;3.88;;;22.90;99.90;;;;;;4892218;29;20189;-65
2023/08/14 09:06:13;;;;;;;13.15;3.78;;;22.90;99.90;;;;;;4893063;29;20232;-65
2023/08/14 09:08:40;;;;;;;6.60;3.35;;;23.00;99.90;;;;;;4913425;29;20264;-65
2023/08/14 09:11:06;;;;;;;14.10;3.45;;;23.10;99.90;;;;;;4882620;29;20203;-64
2023/08/14 09:13:32;;;;;;;9.30;2.90;;;23.10;99.90;;;;;;4897635;29;20298;-64
2023/08/14 09:16:00;;;;;;;10.55;2.65;;;23.20;99.90;;;;;;4898071;29;20188;-64
2023/08/14 09:18:26;;;;;;;5.97;2.53;;;23.30;99.90;;;;;;4912854;29;20211;-64
2023/08/14 09:20:53;;;;;;;7.82;2.50;;;23.30;99.90;;;;;;4896017;29;20193;-65
2023/08/14 09:23:20;;;;;;;7.80;2.70;;;23.30;99.90;;;;;;4898677;29;20236;-65
2023/08/14 09:25:46;;;;;;;6.65;2.45;;;23.30;99.90;;;;;;4895263;29;20666;-66
2023/08/14 09:28:12;;;;;;;7.13;2.60;;;23.30;99.90;;;;;;4897756;29;20191;-65
2023/08/14 09:30:40;;;;;;;7.45;2.35;;;23.40;99.90;;;;;;4897945;29;20207;-64
2023/08/14 09:33:08;;;;;;;5.78;2.60;;;23.50;99.90;;;;;;4898785;29;20221;-64
2023/08/14 09:35:35;;;;;;;6.47;2.38;;;23.60;99.90;;;;;;4880972;29;20189;-66
2023/08/14 09:38:01;;;;;;;7.45;2.40;;;23.70;99.90;;;;;;4896446;29;20191;-65
2023/08/14 09:40:27;;;;;;;7.22;2.17;;;23.80;99.90;;;;;;4912266;29;20196;-65
2023/08/14 09:42:55;;;;;;;8.77;2.28;;;23.80;99.90;;;;;;4898504;29;20193;-65
2023/08/14 09:45:24;;;;;;;7.88;3.45;;;23.80;99.90;;;;;;4897489;29;20204;-65
2023/08/14 09:47:51;;;;;;;8.35;2.55;;;23.80;99.90;;;;;;4871455;29;20189;-65
2023/08/14 09:50:20;;;;;;;5.80;2.33;;;23.80;99.90;;;;;;4890067;29;20188;-65
2023/08/14 09:52:46;;;;;;;7.75;2.22;;;23.80;99.90;;;;;;4898550;29;20193;-65
2023/08/14 09:55:15;;;;;;;7.18;2.70;;;23.80;99.90;;;;;;4898109;29;20543;-66
2023/08/14 09:57:41;;;;;;;11.85;2.40;;;23.70;99.90;;;;;;4886578;29;20189;-66
2023/08/14 10:00:08;;;;;;;10.70;2.50;;;23.80;99.90;;;;;;4884996;29;20295;-66
2023/08/14 10:02:37;;;;;;;5.80;2.10;;;23.80;99.90;;;;;;4892146;29;20192;-65
2023/08/14 10:05:09;;;;;;;6.97;1.92;;;23.80;99.90;;;;;;4896559;29;20196;-65
2023/08/14 10:07:36;;;;;;;6.00;2.13;;;23.80;99.90;;;;;;4897499;29;20650;-65
2023/08/14 10:10:04;;;;;;;5.07;1.80;;;23.80;99.90;;;;;;4883596;29;20702;-65
2023/08/14 10:12:35;;;;;;;6.55;2.00;;;23.80;99.90;;;;;;4896863;29;20568;-64
2023/08/14 10:15:10;;;;;;;4.28;1.80;;;23.80;99.90;;;;;;4896308;29;20220;-63
2023/08/14 10:17:46;;;;;;;7.78;2.42;;;23.90;99.90;;;;;;4895904;29;20255;-64
2023/08/14 10:20:17;;;;;;;5.43;1.63;;;23.90;99.90;;;;;;4885704;29;20192;-64
2023/08/14 10:22:45;;;;;;;5.35;1.80;;;24.10;99.90;;;;;;4898172;29;20240;-64
2023/08/14 10:25:13;;;;;;;4.25;1.63;;;24.30;99.90;;;;;;4897464;29;20236;-64
2023/08/14 10:27:39;;;;;;;5.22;1.92;;;24.50;99.90;;;;;;4894859;29;20200;-64
2023/08/14 10:30:07;;;;;;;8.48;1.67;;;24.60;99.90;;;;;;4883619;29;20696;-64
2023/08/14 10:32:34;;;;;;;4.38;1.65;;;24.80;99.90;;;;;;4893628;29;20562;-65
2023/08/14 10:35:00;;;;;;;3.97;1.50;;;24.80;99.90;;;;;;4897865;29;20216;-64
2023/08/14 10:37:28;;;;;;;4.07;1.40;;;25.00;99.90;;;;;;4896465;29;20658;-63
2023/08/14 10:40:20;;;;;;;4.70;1.58;;;25.10;99.90;;;;;;4896252;29;20267;-63
2023/08/14 10:43:00;;;;;;;3.13;1.50;;;25.10;99.90;;;;;;4897000;29;20271;-64
2023/08/14 10:45:28;;;;;;;8.88;2.88;;;25.20;99.90;;;;;;4889599;29;20657;-64
2023/08/14 10:48:00;;;;;;;7.28;2.53;;;25.30;99.90;;;;;;4897445;29;20661;-64
2023/08/14 10:50:29;;;;;;;4.88;1.80;;;25.40;99.90;;;;;;4897457;29;20526;-64
2023/08/14 10:52:56;;;;;;;6.72;1.77;;;25.50;99.90;;;;;;4895785;29;20192;-65
2023/08/14 10:55:55;;;;;;;6.35;1.50;;;25.60;99.90;;;;;;4895095;29;20216;-64
2023/08/14 10:58:36;;;;;;;7.60;1.70;;;25.70;99.40;;;;;;4858008;29;20708;-64
2023/08/14 11:01:10;;;;;;;3.88;1.30;;;25.80;98.90;;;;;;4885668;29;20637;-64
2023/08/14 11:03:54;;;;;;;5.15;1.45;;;25.80;98.20;;;;;;4896923;29;20609;-64
2023/08/14 11:06:29;;;;;;;5.40;2.28;;;25.90;98.30;;;;;;4895737;29;20612;-64
2023/08/14 11:09:05;;;;;;;4.35;1.58;;;25.90;98.50;;;;;;4894094;29;20193;-63
2023/08/14 11:11:31;;;;;;;8.60;1.90;;;25.90;98.40;;;;;;4882773;29;20512;-63
2023/08/14 11:13:57;;;;;;;7.03;1.52;;;25.90;98.20;;;;;;4897197;29;20227;-63
2023/08/14 11:16:23;;;;;;;4.50;1.67;;;26.00;98.20;;;;;;4895467;29;20193;-63
2023/08/14 11:18:51;;;;;;;4.05;1.55;;;26.00;98.10;;;;;;4895450;29;20833;-63
2023/08/14 11:21:17;;;;;;;5.63;1.60;;;26.10;97.80;;;;;;4878731;29;20192;-63
2023/08/14 11:23:43;;;;;;;3.33;1.40;;;26.10;97.70;;;;;;4869962;29;20193;-63
2023/08/14 11:26:09;;;;;;;4.78;1.30;;;26.10;97.50;;;;;;4889637;29;20199;-63
2023/08/14 11:28:35;;;;;;;4.90;1.40;;;26.10;97.40;;;;;;4897008;29;20192;-63
2023/08/14 11:31:01;;;;;;;5.20;1.70;;;26.20;96.80;;;;;;4872051;29;20249;-63
2023/08/14 11:33:30;;;;;;;5.65;1.63;;;26.30;96.30;;;;;;4896733;29;20811;-64
2023/08/14 11:35:55;;;;;;;6.47;1.67;;;26.30;95.50;;;;;;4894994;29;20283;-64
2023/08/14 11:38:24;;;;;;;5.32;1.70;;;26.40;95.20;;;;;;4896882;29;20274;-64
2023/08/14 11:40:50;;;;;;;3.53;1.60;;;26.40;95.10;;;;;;4896339;29;20268;-64
2023/08/14 11:43:16;;;;;;;5.03;1.58;;;26.40;94.90;;;;;;4895794;29;20641;-64
2023/08/14 11:45:42;;;;;;;3.67;1.52;;;26.50;94.50;;;;;;4896720;29;20629;-63
2023/08/14 11:48:08;;;;;;;5.13;1.73;;;26.50;94.80;;;;;;4893833;29;20196;-64
2023/08/14 11:50:35;;;;;;;4.18;1.60;;;26.50;95.00;;;;;;4883882;29;20200;-64
2023/08/14 11:53:01;;;;;;;5.00;1.60;;;26.50;95.00;;;;;;4893536;29;20196;-64
2023/08/14 11:55:28;;;;;;;4.25;1.60;;;26.50;94.60;;;;;;4893333;29;20189;-64
2023/08/14 11:57:54;;;;;;;4.85;1.80;;;26.40;94.70;;;;;;4879622;29;20189;-64
2023/08/14 12:00:20;;;;;;;9.07;2.97;;;26.40;94.70;;;;;;4889221;29;20195;-65
2023/08/14 12:02:46;;;;;;;5.70;2.17;;;26.30;94.80;;;;;;4894084;29;20236;-64
2023/08/14 12:05:12;;;;;;;5.68;1.50;;;26.30;94.70;;;;;;4896134;29;20235;-64
2023/08/14 12:07:42;;;;;;;6.28;1.80;;;26.30;94.10;;;;;;4894987;29;20223;-63
2023/08/14 12:10:09;;;;;;;4.90;1.88;;;26.30;94.20;;;;;;4896267;29;20567;-63
2023/08/14 12:12:35;;;;;;;6.45;1.75;;;26.30;94.30;;;;;;4894369;29;20626;-63
2023/08/14 12:15:01;;;;;;;8.10;2.00;;;26.20;94.20;;;;;;4894653;29;20657;-63
2023/08/14 12:17:29;;;;;;;5.45;1.60;;;26.30;94.40;;;;;;4889201;29;20618;-63
2023/08/14 12:19:57;;;;;;;3.30;1.70;;;26.30;94.60;;;;;;4895055;29;20193;-64
2023/08/14 12:22:25;;;;;;;4.60;2.03;;;26.30;94.70;;;;;;4895722;29;20189;-64
2023/08/14 12:24:52;;;;;;;7.40;3.25;;;26.20;94.70;;;;;;4878385;29;20459;-64
2023/08/14 12:27:19;;;;;;;7.70;2.78;;;26.20;95.10;;;;;;4887774;29;20200;-64
2023/08/14 12:29:46;;;;;;;5.90;1.70;;;26.30;95.70;;;;;;4895037;29;20184;-64
2023/08/14 12:32:12;;;;;;;4.68;1.73;;;26.30;94.80;;;;;;4896157;29;20195;-64
2023/08/14 12:34:38;;;;;;;4.68;1.90;;;26.30;94.50;;;;;;4896143;29;20315;-64
2023/08/14 12:37:05;;;;;;;8.75;2.13;;;26.20;94.30;;;;;;4879579;29;20343;-64
2023/08/14 12:39:32;;;;;;;6.50;1.92;;;26.30;94.60;;;;;;4895253;29;20195;-64
2023/08/14 12:41:59;;;;;;;6.88;2.08;;;26.30;94.90;;;;;;4913163;29;20201;-64